Terminal Aerodrome Forecast
Issued by NWS

Home | Current Version | Previous Version | Text Only | Print | Product List | Glossary On
Versions: 1 2 3 4 5 6 7 8 9 10 11 12 13 14 15 16 17 18 19 20 21 22 23 24 25 26 27 28 29
000
FTUS41 KBUF 011400 AAA
TAFIAG
TAF AMD
KIAG 011403Z 0114/0212 20008KT P6SM BKN015
     FM011600 21012KT P6SM SCT040
     FM020000 21006KT P6SM SCT070
     FM020600 20011KT P6SM VCSH BKN050=

USA.gov is the U.S. government's official web portal to all federal, state and local government web resources and services.